Time;durP1;ratioP1;P1;durP2;ratioP2;P2;SDS_P1;SDS_P2;PMS_P1;PMS_P2;Temp;Humidity;BMP_temperature;BMP_pressure;BME280_temperature;BME280_humidity;BME280_pressure;Samples;Min_cycle;Max_cycle;Signal;HPM_P1;HPM_P2
2021/08/24 00:01:44;;;;;;;6.90;6.20;;;;;;;25.57;55.08;100736.00;1752115;81;21057;-45
2021/08/24 00:04:11;;;;;;;7.53;5.97;;;;;;;25.59;55.07;100734.47;1749511;80;21734;-45
2021/08/24 00:06:37;;;;;;;7.95;6.33;;;;;;;25.62;55.00;100735.75;1748616;81;23345;-45
2021/08/24 00:09:04;;;;;;;7.67;6.15;;;;;;;25.64;54.91;100734.22;1743709;81;21047;-47
2021/08/24 00:11:33;;;;;;;7.00;5.92;;;;;;;25.67;54.83;100739.11;1743373;80;21088;-45
2021/08/24 00:13:58;;;;;;;7.70;6.17;;;;;;;25.69;54.73;100735.95;1751469;81;21072;-45
2021/08/24 00:16:24;;;;;;;6.95;6.10;;;;;;;25.71;54.71;100735.03;1758298;81;21423;-46
2021/08/24 00:18:50;;;;;;;8.55;6.62;;;;;;;25.71;54.63;100733.64;1749863;80;21887;-45
2021/08/24 00:21:16;;;;;;;8.08;6.35;;;;;;;25.70;54.59;100737.58;1751165;80;20914;-45
2021/08/24 00:23:42;;;;;;;7.97;6.37;;;;;;;25.71;54.57;100747.56;1747544;81;21027;-45
2021/08/24 00:26:08;;;;;;;6.70;6.00;;;;;;;25.71;54.63;100742.00;1758478;81;20982;-46
2021/08/24 00:28:34;;;;;;;7.83;6.55;;;;;;;25.69;54.62;100732.59;1748577;80;21119;-47
2021/08/24 00:31:00;;;;;;;7.12;6.42;;;;;;;25.69;54.60;100739.55;1756726;80;21485;-44
2021/08/24 00:33:26;;;;;;;7.10;6.40;;;;;;;25.69;54.56;100740.95;1752732;81;21584;-46
2021/08/24 00:35:53;;;;;;;7.05;6.35;;;;;;;25.68;54.59;100739.31;1748618;81;20998;-46
2021/08/24 00:38:21;;;;;;;7.10;5.92;;;;;;;25.67;54.57;100731.33;1751309;81;21329;-49
2021/08/24 00:40:55;;;;;;;7.70;6.53;;;;;;;25.66;54.53;100736.09;1746827;81;21027;-49
2021/08/24 00:43:22;;;;;;;8.00;6.50;;;;;;;25.65;54.48;100736.44;1747961;81;21102;-45
2021/08/24 00:45:52;;;;;;;7.10;6.22;;;;;;;25.65;54.48;100740.61;1743709;81;21554;-45
2021/08/24 00:48:23;;;;;;;6.65;5.90;;;;;;;25.63;54.46;100738.17;1752669;81;21091;-45
2021/08/24 00:50:49;;;;;;;7.17;6.08;;;;;;;25.62;54.43;100742.14;1751675;80;21103;-46
2021/08/24 00:53:19;;;;;;;7.97;6.05;;;;;;;25.62;54.48;100735.75;1747680;81;21162;-45
2021/08/24 00:55:45;;;;;;;7.12;5.95;;;;;;;25.61;54.53;100735.52;1755498;81;21486;-45
2021/08/24 01:18:21;;;;;;;6.20;5.58;;;;;;;25.62;54.94;100705.11;1749780;80;21045;-44
2021/08/24 01:20:56;;;;;;;6.33;5.45;;;;;;;25.69;54.92;100721.44;1754844;80;21075;-49
2021/08/24 01:23:45;;;;;;;6.58;5.97;;;;;;;25.70;54.86;100713.31;1791483;79;20934;-43
2021/08/24 01:26:40;;;;;;;7.15;5.90;;;;;;;25.71;54.84;100725.28;1792988;78;21500;-45
2021/08/24 01:29:44;;;;;;;6.50;5.20;;;;;;;25.70;54.79;100724.47;1785054;78;21815;-45
2021/08/24 01:32:50;;;;;;;5.40;4.90;;;;;;;25.70;54.74;100727.83;1794298;78;21099;-45
2021/08/24 01:35:51;;;;;;;6.55;5.92;;;;;;;25.67;54.71;100725.76;1790125;79;21065;-44
2021/08/24 01:38:20;;;;;;;6.65;5.37;;;;;;;25.65;54.67;100720.53;1732813;81;21558;-43
2021/08/24 01:41:14;;;;;;;7.22;5.90;;;;;;;25.64;54.65;100722.27;1725436;81;21136;-43
2021/08/24 01:43:58;;;;;;;7.08;5.30;;;;;;;25.63;54.66;100720.66;1758791;80;21559;-43
2021/08/24 01:46:33;;;;;;;6.47;5.80;;;;;;;25.60;54.64;100717.98;1758342;80;21060;-43
2021/08/24 01:49:00;;;;;;;5.85;5.25;;;;;;;25.58;54.62;100717.55;1744509;80;21055;-43
2021/08/24 01:51:30;;;;;;;6.00;5.25;;;;;;;25.58;54.62;100725.09;1746680;80;20911;-44
2021/08/24 01:54:07;;;;;;;6.90;5.90;;;;;;;25.57;54.63;100718.70;1788166;78;21077;-44
2021/08/24 01:56:38;;;;;;;6.30;5.33;;;;;;;25.57;54.71;100720.67;1763378;80;21093;-42
2021/08/24 01:59:27;;;;;;;6.03;5.28;;;;;;;25.57;54.69;100716.50;1752361;80;21119;-44
2021/08/24 02:02:12;;;;;;;5.75;5.25;;;;;;;25.56;54.74;100717.66;1746725;80;21510;-43
2021/08/24 02:04:55;;;;;;;5.95;5.35;;;;;;;25.55;54.75;100721.02;1733862;81;21151;-43
2021/08/24 02:07:22;;;;;;;6.35;5.25;;;;;;;25.55;54.76;100714.05;1788431;78;21511;-43
2021/08/24 02:09:50;;;;;;;6.08;5.45;;;;;;;25.55;54.75;100707.66;1784453;78;23234;-43
2021/08/24 02:12:18;;;;;;;5.45;4.85;;;;;;;25.55;54.78;100713.23;1796728;78;20920;-43
2021/08/24 02:14:44;;;;;;;5.15;4.47;;;;;;;25.55;54.79;100711.27;1788710;78;21047;-43
2021/08/24 02:17:12;;;;;;;7.17;5.45;;;;;;;25.54;54.78;100707.46;1798856;78;21539;-44
2021/08/24 02:19:44;;;;;;;5.90;5.30;;;;;;;25.55;54.82;100702.09;1789418;78;21093;-43
2021/08/24 02:22:21;;;;;;;5.28;4.78;;;;;;;25.54;54.84;100699.92;1784085;78;21538;-44
2021/08/24 02:24:53;;;;;;;5.92;5.33;;;;;;;25.55;54.85;100702.09;1790950;78;21068;-45
2021/08/24 02:27:26;;;;;;;6.70;5.00;;;;;;;25.55;54.87;100699.30;1798096;78;21077;-91
2021/08/24 02:29:52;;;;;;;6.12;4.78;;;;;;;25.54;54.88;100700.50;1794666;78;21028;-45
2021/08/24 02:32:31;;;;;;;5.40;4.90;;;;;;;25.54;54.86;100700.50;1797405;78;21711;-44
2021/08/24 02:35:08;;;;;;;5.03;4.55;;;;;;;25.54;54.88;100693.53;1765121;79;22140;-45
2021/08/24 02:37:51;;;;;;;5.22;4.50;;;;;;;25.54;54.88;100695.73;1787688;78;21181;-43
2021/08/24 02:40:26;;;;;;;4.92;4.28;;;;;;;25.53;54.90;100694.66;1789890;78;21491;-44
2021/08/24 02:43:22;;;;;;;6.08;4.90;;;;;;;25.53;54.93;100691.33;1729903;81;21011;-46
2021/08/24 02:46:06;;;;;;;6.40;5.28;;;;;;;25.53;54.98;100690.48;1786638;78;21120;-47
2021/08/24 02:48:32;;;;;;;5.65;4.45;;;;;;;25.53;55.00;100687.69;1792786;78;21610;-43
2021/08/24 02:50:58;;;;;;;4.87;4.47;;;;;;;25.52;55.06;100681.89;1790897;78;20993;-44
2021/08/24 02:53:25;;;;;;;5.20;4.60;;;;;;;25.54;55.14;100685.98;1796801;78;21723;-43
2021/08/24 02:55:52;;;;;;;4.28;3.75;;;;;;;25.58;55.29;100687.48;1797977;78;21645;-45
2021/08/24 02:58:18;;;;;;;4.78;4.28;;;;;;;25.61;55.42;100681.19;1796680;78;21067;-44
2021/08/24 03:00:46;;;;;;;4.65;3.95;;;;;;;25.65;55.62;100691.27;1793465;78;21135;-44
2021/08/24 03:03:14;;;;;;;5.70;4.58;;;;;;;25.68;55.72;100690.55;1789078;78;21062;-43
2021/08/24 03:05:40;;;;;;;6.05;4.83;;;;;;;25.73;55.74;100689.48;1797434;78;21024;-44
2021/08/24 03:08:07;;;;;;;4.97;4.20;;;;;;;25.76;55.66;100687.38;1799038;78;21051;-44
2021/08/24 03:10:35;;;;;;;5.03;4.00;;;;;;;25.77;55.52;100686.22;1791840;78;21006;-44
2021/08/24 03:13:29;;;;;;;5.10;4.60;;;;;;;25.80;55.46;100684.92;1794653;78;21230;-45
2021/08/24 03:16:06;;;;;;;5.65;3.83;;;;;;;25.81;55.37;100688.52;1784509;78;21031;-45
2021/08/24 03:18:41;;;;;;;4.90;4.10;;;;;;;25.82;55.25;100690.97;1797783;78;21025;-45
2021/08/24 03:21:10;;;;;;;5.03;4.40;;;;;;;25.82;55.17;100684.58;1796967;78;21181;-46
2021/08/24 03:23:38;;;;;;;5.12;4.47;;;;;;;25.81;55.11;100691.31;1799247;78;21028;-44
2021/08/24 03:26:05;;;;;;;7.40;4.80;;;;;;;25.79;55.06;100690.29;1789729;78;21115;-43
2021/08/24 03:28:32;;;;;;;5.60;4.10;;;;;;;25.79;55.01;100688.08;1793882;78;21484;-43
2021/08/24 03:30:58;;;;;;;4.87;4.40;;;;;;;25.79;54.95;100685.30;1799546;78;21454;-46
2021/08/24 03:33:24;;;;;;;6.95;4.67;;;;;;;25.77;54.89;100684.25;1797763;78;20905;-44
2021/08/24 03:35:50;;;;;;;5.00;4.08;;;;;;;25.75;54.88;100683.81;1802603;78;21009;-44
2021/08/24 03:38:16;;;;;;;5.65;4.17;;;;;;;25.74;54.85;100684.97;1793119;78;21554;-43
2021/08/24 03:40:42;;;;;;;5.40;4.83;;;;;;;25.74;54.84;100684.97;1795515;78;21033;-44
2021/08/24 03:43:08;;;;;;;4.60;4.10;;;;;;;25.72;54.83;100675.33;1802527;78;21697;-43
2021/08/24 03:45:36;;;;;;;5.03;4.28;;;;;;;25.71;54.83;100677.33;1800105;79;21052;-45
2021/08/24 03:48:04;;;;;;;4.55;4.00;;;;;;;25.71;54.79;100683.48;1795268;78;20997;-45
2021/08/24 03:50:30;;;;;;;5.15;4.33;;;;;;;25.69;54.81;100677.44;1790413;79;21075;-44
2021/08/24 03:52:56;;;;;;;5.08;4.55;;;;;;;25.68;54.74;100689.73;1797201;79;21648;-45
2021/08/24 03:55:22;;;;;;;10.48;5.58;;;;;;;25.68;54.60;100690.55;1797532;78;20929;-46
2021/08/24 03:57:48;;;;;;;34.65;11.73;;;;;;;25.69;54.48;100692.77;1794894;78;21514;-43
2021/08/24 04:00:16;;;;;;;32.67;10.05;;;;;;;25.69;54.36;100689.40;1803354;78;21088;-46
2021/08/24 04:02:42;;;;;;;33.48;12.95;;;;;;;25.69;54.26;100690.79;1796237;78;21067;-47
2021/08/24 04:05:10;;;;;;;96.90;26.48;;;;;;;25.69;54.17;100683.82;1797606;78;21609;-43
2021/08/24 04:07:36;;;;;;;170.75;49.18;;;;;;;25.69;54.12;100692.19;1793928;78;21042;-44
2021/08/24 04:10:03;;;;;;;108.42;31.45;;;;;;;25.70;54.06;100702.17;1804075;78;21012;-43
2021/08/24 04:12:29;;;;;;;53.92;14.58;;;;;;;25.71;54.01;100707.16;1796288;78;21140;-44
2021/08/24 04:14:56;;;;;;;27.82;8.93;;;;;;;25.72;53.99;100705.97;1802154;78;21474;-44
2021/08/24 04:17:22;;;;;;;9.30;5.50;;;;;;;25.71;53.92;100708.56;1777106;78;21531;-43
2021/08/24 04:19:48;;;;;;;5.85;4.50;;;;;;;25.71;53.91;100702.98;1752677;80;21016;-44
2021/08/24 04:22:18;;;;;;;5.47;4.28;;;;;;;25.71;53.89;100701.59;1758640;80;20956;-46
2021/08/24 04:24:44;;;;;;;8.13;4.92;;;;;;;25.71;53.83;100694.63;1760395;79;21528;-43
2021/08/24 04:27:10;;;;;;;7.03;4.87;;;;;;;25.70;53.81;100697.17;1760431;80;21752;-45
2021/08/24 04:29:37;;;;;;;13.13;7.60;;;;;;;25.70;53.79;100698.57;1756877;80;21034;-43
2021/08/24 04:32:05;;;;;;;30.77;11.08;;;;;;;25.71;53.78;100701.02;1757621;80;21000;-47
2021/08/24 04:34:32;;;;;;;41.05;14.60;;;;;;;25.72;53.78;100691.46;1723673;81;21022;-43
2021/08/24 04:36:58;;;;;;;16.45;7.85;;;;;;;25.74;53.74;100691.12;1698522;83;21021;-48
2021/08/24 04:39:24;;;;;;;88.62;22.65;;;;;;;25.74;53.69;100688.33;1699277;83;21168;-43
2021/08/24 04:41:50;;;;;;;35.03;11.18;;;;;;;25.74;53.65;100686.94;1712879;82;21004;-46
2021/08/24 04:44:16;;;;;;;14.50;6.42;;;;;;;25.75;53.63;100686.59;1718296;82;21117;-43
2021/08/24 04:46:42;;;;;;;10.15;5.20;;;;;;;25.75;53.59;100690.78;1713473;82;21573;-43
2021/08/24 04:49:08;;;;;;;6.62;4.00;;;;;;;25.76;53.58;100691.56;1720312;82;21025;-46
2021/08/24 04:51:34;;;;;;;5.85;4.70;;;;;;;25.76;53.56;100688.77;1715710;82;21206;-43
2021/08/24 04:54:00;;;;;;;9.70;4.90;;;;;;;25.76;53.52;100690.16;1719604;82;20905;-46
2021/08/24 04:56:27;;;;;;;6.30;4.53;;;;;;;25.76;53.55;100688.77;1711552;82;21018;-43
2021/08/24 04:58:53;;;;;;;6.62;4.87;;;;;;;25.76;53.54;100690.16;1713050;82;21013;-43
2021/08/24 05:01:19;;;;;;;5.50;4.62;;;;;;;25.77;53.52;100690.41;1716473;82;20897;-45
2021/08/24 05:03:45;;;;;;;8.23;4.40;;;;;;;25.76;53.49;100695.73;1712338;82;21332;-44
2021/08/24 05:06:11;;;;;;;5.05;4.05;;;;;;;25.75;53.46;100694.14;1717280;82;21678;-43
2021/08/24 05:08:37;;;;;;;6.12;4.72;;;;;;;25.76;53.42;100704.09;1718322;82;20927;-44
2021/08/24 05:11:03;;;;;;;5.80;4.97;;;;;;;25.76;53.39;100705.49;1714903;82;21013;-43
2021/08/24 05:13:29;;;;;;;5.17;4.65;;;;;;;25.76;53.36;100709.67;1719542;82;21050;-43
2021/08/24 05:15:55;;;;;;;5.83;4.60;;;;;;;25.76;53.33;100704.09;1714501;82;22129;-43
2021/08/24 05:18:21;;;;;;;5.95;4.95;;;;;;;25.74;53.30;100703.08;1706768;82;20944;-43
2021/08/24 05:20:47;;;;;;;4.80;4.25;;;;;;;25.76;53.28;100704.91;1760735;79;21585;-43
2021/08/24 05:23:13;;;;;;;5.03;4.40;;;;;;;25.75;53.25;100703.31;1759607;80;21146;-42
2021/08/24 05:25:39;;;;;;;5.15;4.47;;;;;;;25.76;53.22;100707.70;1756407;80;21006;-42
2021/08/24 05:28:05;;;;;;;5.17;4.60;;;;;;;25.76;53.19;100710.48;1760640;79;22009;-44
2021/08/24 05:30:31;;;;;;;6.00;4.85;;;;;;;25.76;53.16;100706.89;1758333;80;21099;-43
2021/08/24 05:32:59;;;;;;;6.55;4.62;;;;;;;25.76;53.12;100705.49;1745146;79;20975;-45
2021/08/24 05:35:25;;;;;;;5.03;4.30;;;;;;;25.76;53.10;100713.27;1757964;80;21058;-43
2021/08/24 05:37:51;;;;;;;6.45;4.62;;;;;;;25.75;53.06;100710.28;1762240;79;20925;-42
2021/08/24 05:40:18;;;;;;;6.08;5.20;;;;;;;25.76;53.04;100709.67;1763555;80;21315;-43
2021/08/24 05:42:44;;;;;;;6.87;4.78;;;;;;;25.75;53.03;100711.67;1759638;79;21030;-44
2021/08/24 05:45:11;;;;;;;6.10;4.80;;;;;;;25.76;53.00;100709.67;1761561;79;21036;-42
2021/08/24 05:47:37;;;;;;;6.70;5.10;;;;;;;25.76;52.98;100712.45;1762236;79;21125;-42
2021/08/24 05:50:05;;;;;;;6.33;4.85;;;;;;;25.76;52.97;100711.06;1762438;79;21452;-43
2021/08/24 05:52:32;;;;;;;6.25;4.85;;;;;;;25.77;52.95;100708.52;1761792;80;21052;-44
2021/08/24 05:54:58;;;;;;;6.10;4.17;;;;;;;25.77;52.90;100711.30;1758130;80;21494;-44
2021/08/24 05:57:24;;;;;;;7.70;4.80;;;;;;;25.76;52.89;100711.06;1760077;80;21072;-42
2021/08/24 05:59:50;;;;;;;6.00;4.75;;;;;;;25.76;52.85;100710.48;1760398;80;20870;-43
2021/08/24 06:02:16;;;;;;;5.67;4.87;;;;;;;25.77;52.84;100715.48;1762912;79;21027;-43
2021/08/24 06:04:42;;;;;;;6.40;4.60;;;;;;;25.76;52.83;100711.87;1760187;80;21115;-43
2021/08/24 06:07:10;;;;;;;6.33;5.17;;;;;;;25.76;52.79;100709.67;1762674;80;20977;-44
2021/08/24 06:09:36;;;;;;;4.95;4.45;;;;;;;25.76;52.77;100713.85;1757649;80;21103;-43
2021/08/24 06:12:03;;;;;;;5.95;5.10;;;;;;;25.77;52.73;100715.48;1759995;80;21007;-43
2021/08/24 06:14:30;;;;;;;6.72;5.37;;;;;;;25.77;52.71;100719.08;1759172;79;21143;-43
2021/08/24 06:16:59;;;;;;;5.62;4.67;;;;;;;25.77;52.71;100728.02;1756683;80;21437;-45
2021/08/24 06:19:27;;;;;;;5.22;4.67;;;;;;;25.77;52.69;100727.44;1753988;80;21543;-43
2021/08/24 06:21:54;;;;;;;6.62;4.53;;;;;;;25.77;52.67;100726.62;1738014;81;21041;-44
2021/08/24 06:24:20;;;;;;;5.20;4.70;;;;;;;25.77;52.65;100730.23;1740760;81;21029;-44
2021/08/24 06:26:46;;;;;;;8.33;5.22;;;;;;;25.77;52.62;100732.20;1743445;80;21552;-42
2021/08/24 06:29:12;;;;;;;6.95;5.03;;;;;;;25.77;52.62;100723.84;1741839;81;22158;-43
2021/08/24 06:31:42;;;;;;;5.83;5.05;;;;;;;25.76;52.59;100728.59;1740850;81;21009;-43
2021/08/24 06:34:09;;;;;;;6.22;4.95;;;;;;;25.76;52.60;100721.63;1740485;81;21630;-44
2021/08/24 06:36:36;;;;;;;5.97;4.92;;;;;;;25.77;52.57;100726.05;1736340;81;21496;-46
2021/08/24 06:39:05;;;;;;;6.70;4.80;;;;;;;25.77;52.56;100726.62;1713645;81;21490;-43
2021/08/24 06:41:31;;;;;;;5.62;4.80;;;;;;;25.77;52.52;100731.63;1719699;81;21155;-43
2021/08/24 06:43:57;;;;;;;7.15;4.97;;;;;;;25.78;52.51;100726.86;1731595;82;21463;-45
2021/08/24 06:46:23;;;;;;;5.65;5.08;;;;;;;25.78;52.51;100729.07;1734964;81;21123;-44
2021/08/24 06:48:49;;;;;;;5.75;4.95;;;;;;;25.78;52.49;100729.66;1750655;80;21127;-43
2021/08/24 06:51:15;;;;;;;5.70;4.78;;;;;;;25.77;52.46;100726.62;1747147;81;21575;-43
2021/08/24 06:53:42;;;;;;;7.60;5.58;;;;;;;25.78;52.43;100728.26;1745992;80;21826;-43
2021/08/24 06:56:12;;;;;;;6.33;5.33;;;;;;;25.78;52.41;100725.47;1743525;81;21037;-44
2021/08/24 06:58:40;;;;;;;7.40;5.30;;;;;;;25.78;52.38;100731.86;1747820;81;21525;-44
2021/08/24 07:01:06;;;;;;;6.62;5.08;;;;;;;25.80;52.35;100732.91;1745735;80;21524;-42
2021/08/24 07:03:32;;;;;;;6.08;5.25;;;;;;;25.79;52.31;100732.09;1743279;80;21096;-43
2021/08/24 07:05:58;;;;;;;6.75;5.22;;;;;;;25.79;52.30;100731.28;1725573;81;21886;-43
2021/08/24 07:08:24;;;;;;;7.65;5.25;;;;;;;25.80;52.25;100735.70;1750633;81;21076;-43
2021/08/24 07:10:50;;;;;;;7.03;5.75;;;;;;;25.81;52.23;100741.47;1738453;81;21059;-42
2021/08/24 07:13:17;;;;;;;6.78;5.30;;;;;;;25.80;52.22;100736.48;1741353;81;21144;-43
2021/08/24 07:15:43;;;;;;;7.08;5.47;;;;;;;25.81;52.20;100734.50;1736252;81;21120;-42
2021/08/24 07:18:09;;;;;;;6.33;5.33;;;;;;;25.80;52.14;100735.09;1750378;79;21228;-43
2021/08/24 07:20:35;;;;;;;6.47;5.22;;;;;;;25.81;52.15;100733.92;1764157;80;21042;-44
2021/08/24 07:23:02;;;;;;;6.33;5.58;;;;;;;25.82;52.14;100738.92;1762513;79;21069;-43
2021/08/24 07:25:31;;;;;;;6.87;5.95;;;;;;;25.82;52.10;100739.73;1757602;80;21735;-43
2021/08/24 07:27:57;;;;;;;6.40;5.50;;;;;;;25.82;52.09;100733.34;1760586;79;21401;-43
2021/08/24 07:30:23;;;;;;;7.35;5.60;;;;;;;25.82;51.94;100737.53;1762668;79;21214;-43
2021/08/24 07:32:49;;;;;;;6.45;5.30;;;;;;;25.81;51.70;100734.50;1764456;80;21121;-43
2021/08/24 07:35:17;;;;;;;6.47;5.50;;;;;;;25.78;51.46;100724.08;1760209;80;21104;-43
2021/08/24 07:37:44;;;;;;;7.05;5.37;;;;;;;25.77;51.28;100728.84;1766256;79;21094;-42
2021/08/24 07:40:12;;;;;;;7.37;5.42;;;;;;;25.76;51.20;100727.20;1757673;79;22159;-44
2021/08/24 07:42:38;;;;;;;6.30;5.25;;;;;;;25.78;51.18;100728.26;1763846;79;21093;-43
2021/08/24 07:45:06;;;;;;;6.50;5.35;;;;;;;25.77;51.21;100728.02;1769447;79;21074;-43
2021/08/24 07:47:32;;;;;;;7.67;5.15;;;;;;;25.77;51.22;100723.84;1772291;79;21088;-43
2021/08/24 07:49:58;;;;;;;7.28;5.42;;;;;;;25.77;51.22;100726.05;1757384;79;21017;-43
2021/08/24 07:52:24;;;;;;;6.25;5.53;;;;;;;25.78;51.23;100725.47;1779386;79;21079;-44
2021/08/24 07:54:50;;;;;;;7.22;5.78;;;;;;;25.79;51.19;100727.10;1768132;79;21255;-42
2021/08/24 07:57:16;;;;;;;6.45;5.40;;;;;;;25.79;51.18;100721.52;1756317;79;21030;-46
2021/08/24 07:59:44;;;;;;;7.05;5.28;;;;;;;25.79;51.16;100725.13;1768421;80;21059;-42
2021/08/24 08:02:15;;;;;;;7.50;5.35;;;;;;;25.79;51.13;100712.59;1766864;80;21032;-43
2021/08/24 08:04:41;;;;;;;6.33;5.08;;;;;;;25.79;51.11;100714.56;1761505;80;21498;-43
2021/08/24 08:07:08;;;;;;;6.60;5.50;;;;;;;25.79;51.07;100716.77;1770863;79;21108;-43
2021/08/24 08:09:35;;;;;;;8.68;5.37;;;;;;;25.80;51.03;100718.36;1764942;80;21043;-43
2021/08/24 08:12:01;;;;;;;7.33;5.20;;;;;;;25.80;50.99;100716.97;1760741;79;21016;-44
2021/08/24 08:14:27;;;;;;;6.75;5.12;;;;;;;25.80;50.95;100708.61;1766128;79;21051;-45
2021/08/24 08:16:53;;;;;;;7.50;5.17;;;;;;;25.81;50.93;100703.85;1773112;79;21097;-44
2021/08/24 08:19:20;;;;;;;6.65;5.28;;;;;;;25.82;50.89;100712.45;1736857;80;21174;-46
2021/08/24 08:21:46;;;;;;;6.20;5.17;;;;;;;25.82;50.86;100713.84;1741786;80;21513;-44
2021/08/24 08:24:12;;;;;;;7.72;5.50;;;;;;;25.83;50.87;100707.11;1718997;81;20920;-46
2021/08/24 08:26:38;;;;;;;8.23;5.17;;;;;;;25.82;50.84;100702.11;1746817;81;21071;-43
2021/08/24 08:29:09;;;;;;;6.08;5.30;;;;;;;25.83;50.82;100700.95;1729542;81;21051;-43
2021/08/24 08:31:33;;;;;;;6.12;5.17;;;;;;;25.84;50.80;100701.77;1717800;81;21089;-43
2021/08/24 08:34:00;;;;;;;5.95;4.83;;;;;;;25.83;50.77;100695.38;1729460;81;21000;-43
2021/08/24 08:36:26;;;;;;;6.40;5.17;;;;;;;25.85;50.58;100701.97;1758555;80;21040;-44
2021/08/24 08:38:52;;;;;;;7.03;5.25;;;;;;;25.81;50.36;100701.87;1759915;80;21067;-43
2021/08/24 08:41:33;;;;;;;6.03;5.30;;;;;;;25.79;50.13;100697.84;1760369;80;21013;-45
2021/08/24 08:44:06;;;;;;;6.97;4.92;;;;;;;25.76;49.89;100697.13;1759567;80;21874;-44
2021/08/24 08:47:07;;;;;;;6.20;5.03;;;;;;;25.74;49.65;100699.48;1753560;80;21087;-46
2021/08/24 08:49:48;;;;;;;5.95;5.00;;;;;;;25.69;49.36;100696.94;1753732;80;21515;-43
2021/08/24 08:52:23;;;;;;;6.40;5.10;;;;;;;25.64;49.11;100693.83;1758645;80;21498;-43
2021/08/24 08:54:58;;;;;;;5.90;4.87;;;;;;;25.60;48.83;100690.70;1752978;80;21143;-44
2021/08/24 08:57:32;;;;;;;6.25;4.67;;;;;;;25.55;48.58;100692.34;1760354;80;21613;-42
2021/08/24 09:00:15;;;;;;;6.20;4.60;;;;;;;25.51;48.28;100682.46;1757367;80;21066;-44
2021/08/24 09:03:08;;;;;;;7.62;4.80;;;;;;;25.48;47.98;100682.60;1752815;80;21484;-44
2021/08/24 09:05:34;;;;;;;5.92;4.78;;;;;;;25.47;47.76;100678.19;1739426;80;21120;-43
2021/08/24 09:08:00;;;;;;;6.37;4.62;;;;;;;25.45;47.65;100670.78;1759427;80;21708;-43
2021/08/24 09:10:48;;;;;;;6.72;5.30;;;;;;;25.45;47.46;100670.78;1757125;80;21445;-43
2021/08/24 09:13:26;;;;;;;6.05;4.47;;;;;;;25.45;47.24;100672.17;1757833;79;21081;-44
2021/08/24 09:16:01;;;;;;;5.92;4.67;;;;;;;25.44;47.12;100668.34;1755052;80;21029;-43
2021/08/24 09:18:39;;;;;;;5.25;4.33;;;;;;;25.45;47.06;100670.78;1736804;80;21521;-44
2021/08/24 09:21:05;;;;;;;6.87;4.55;;;;;;;25.44;46.88;100666.37;1742765;79;21528;-44
2021/08/24 09:23:31;;;;;;;5.42;4.70;;;;;;;25.42;46.74;100664.51;1762603;80;21148;-45
2021/08/24 09:26:35;;;;;;;5.05;4.50;;;;;;;25.43;46.73;100659.75;1758377;80;21462;-44
2021/08/24 09:29:01;;;;;;;5.60;4.22;;;;;;;25.42;46.61;100663.69;1763081;80;21132;-45
2021/08/24 09:31:28;;;;;;;6.17;4.30;;;;;;;25.41;46.43;100661.52;1765783;79;21479;-43
2021/08/24 09:33:54;;;;;;;5.22;4.30;;;;;;;25.40;46.42;100659.89;1772222;79;21093;-42
2021/08/24 09:36:20;;;;;;;4.35;3.85;;;;;;;25.42;46.39;100658.94;1773615;79;21115;-43
2021/08/24 09:38:53;;;;;;;5.30;4.30;;;;;;;25.41;46.23;100655.95;1773378;79;21458;-42
2021/08/24 09:41:28;;;;;;;6.42;4.40;;;;;;;25.40;46.12;100657.68;1763421;79;21143;-42
2021/08/24 09:43:57;;;;;;;4.92;3.98;;;;;;;25.40;46.13;100657.10;1770579;79;21497;-43
2021/08/24 09:46:29;;;;;;;5.72;4.45;;;;;;;25.41;46.04;100650.95;1768416;80;21146;-44
2021/08/24 09:49:00;;;;;;;6.53;4.60;;;;;;;25.40;45.87;100642.36;1756336;79;22887;-42
2021/08/24 09:51:46;;;;;;;4.67;4.00;;;;;;;25.40;45.88;100642.36;1756453;80;21121;-43
2021/08/24 09:54:41;;;;;;;6.28;4.37;;;;;;;25.40;45.98;100632.03;1760023;80;21091;-45
2021/08/24 09:57:16;;;;;;;5.40;4.00;;;;;;;25.40;45.86;100637.61;1760703;79;21028;-42
2021/08/24 10:00:01;;;;;;;4.35;3.83;;;;;;;25.40;45.87;100631.22;1760610;80;21069;-44
2021/08/24 10:02:42;;;;;;;5.95;3.72;;;;;;;25.41;46.02;100625.89;1766962;80;21143;-44
2021/08/24 10:05:16;;;;;;;4.17;3.67;;;;;;;25.41;45.90;100633.66;1757642;80;21001;-46
2021/08/24 10:07:45;;;;;;;4.20;3.80;;;;;;;25.39;45.90;100626.23;1749445;79;21735;-44
2021/08/24 10:10:29;;;;;;;5.15;3.98;;;;;;;25.41;46.17;100618.34;1770532;80;20956;-44
2021/08/24 10:12:58;;;;;;;4.92;3.33;;;;;;;25.41;46.11;100618.92;1757325;80;21092;-45
2021/08/24 10:15:29;;;;;;;4.20;3.50;;;;;;;25.40;46.01;100616.72;1755237;80;21208;-46
2021/08/24 10:18:01;;;;;;;;;;;;;;;25.41;46.12;100616.95;1764349;80;21561;-46
2021/08/24 10:20:43;;;;;;;4.00;3.30;;;;;;;25.45;46.23;100612.88;1745848;80;20165;-47
2021/08/24 10:23:15;;;;;;;3.92;3.45;;;;;;;25.45;46.26;100610.90;1751800;80;21102;-45
2021/08/24 10:25:51;;;;;;;4.53;3.30;;;;;;;25.45;46.15;100610.09;1748138;80;20966;-45
2021/08/24 10:28:29;;;;;;;5.20;3.62;;;;;;;25.46;46.07;100613.11;1731154;80;21482;-46
2021/08/24 10:31:01;;;;;;;4.67;3.35;;;;;;;25.48;46.12;100613.55;1748243;79;21061;-46
2021/08/24 10:33:35;;;;;;;4.83;3.95;;;;;;;25.51;46.18;100612.82;1749315;80;21050;-48
2021/08/24 10:36:09;;;;;;;5.97;3.37;;;;;;;25.55;46.28;100613.77;1739130;81;21527;-45
2021/08/24 10:39:22;;;;;;;4.67;3.90;;;;;;;25.59;46.34;100611.88;1731821;81;21119;-46
2021/08/24 10:42:17;;;;;;;4.83;3.35;;;;;;;25.62;46.42;100608.98;1746501;80;21073;-48
2021/08/24 10:44:54;;;;;;;6.65;3.52;;;;;;;25.65;46.47;100605.48;1760410;80;21561;-46
2021/08/24 10:47:28;;;;;;;4.45;3.10;;;;;;;25.68;46.54;100604.75;1762288;80;21079;-48
2021/08/24 10:49:57;;;;;;;3.87;3.47;;;;;;;25.71;46.58;100595.70;1756630;80;21643;-47
2021/08/24 10:52:46;;;;;;;4.30;3.70;;;;;;;25.73;46.65;100599.73;1761513;80;21073;-45
2021/08/24 10:55:22;;;;;;;4.67;3.67;;;;;;;25.76;46.69;100594.02;1713660;81;23219;-46
2021/08/24 10:58:02;;;;;;;3.83;3.25;;;;;;;25.79;46.74;100591.94;1736761;81;21150;-46
2021/08/24 11:01:03;;;;;;;4.30;3.67;;;;;;;25.81;46.79;100590.40;1755370;80;20973;-47
2021/08/24 11:03:44;;;;;;;3.98;3.20;;;;;;;25.85;46.83;100603.03;1716453;81;21498;-46
2021/08/24 11:06:16;;;;;;;4.20;3.25;;;;;;;25.87;46.88;100597.34;1734506;81;21517;-46
2021/08/24 11:09:19;;;;;;;5.42;4.10;;;;;;;25.89;46.92;100589.41;1764957;80;21530;-46
2021/08/24 11:12:12;;;;;;;4.20;3.17;;;;;;;25.90;46.96;100592.44;1752449;80;21616;-47
2021/08/24 11:15:04;;;;;;;4.17;3.58;;;;;;;25.93;46.99;100589.50;1767211;79;21004;-45
2021/08/24 11:17:54;;;;;;;4.87;3.95;;;;;;;25.95;47.02;100587.17;1746869;81;21025;-45
2021/08/24 11:20:36;;;;;;;4.67;3.33;;;;;;;25.98;47.07;100580.88;1733588;81;21550;-45
2021/08/24 11:23:57;;;;;;;5.15;4.12;;;;;;;26.00;47.10;100588.89;1741497;81;21133;-47
2021/08/24 11:26:35;;;;;;;;;;;;;;;26.02;47.14;100583.75;1772292;80;21021;-47
2021/08/24 11:29:26;;;;;;;5.40;3.02;;;;;;;26.04;47.17;100584.21;1756211;80;20196;-47
2021/08/24 11:32:10;;;;;;;5.70;3.50;;;;;;;26.05;47.17;100585.84;1759994;80;21071;-48
2021/08/24 11:34:50;;;;;;;4.50;3.42;;;;;;;26.06;47.22;100576.28;1756873;80;21020;-47
2021/08/24 11:37:21;;;;;;;4.87;3.40;;;;;;;26.09;47.23;100581.16;1758777;80;21813;-46
2021/08/24 11:40:08;;;;;;;4.58;3.02;;;;;;;26.11;47.27;100581.01;1766036;80;21088;-48
2021/08/24 11:42:46;;;;;;;3.50;2.77;;;;;;;26.13;47.28;100573.11;1742423;80;21379;-47
2021/08/24 11:45:19;;;;;;;3.85;3.22;;;;;;;26.16;47.31;100580.74;1769024;80;21046;-47
2021/08/24 11:47:57;;;;;;;3.20;2.70;;;;;;;26.19;47.36;100573.63;1761171;80;21021;-46
2021/08/24 11:50:48;;;;;;;3.62;2.55;;;;;;;26.22;47.36;100566.80;1759859;80;21049;-47
2021/08/24 11:53:23;;;;;;;4.30;2.60;;;;;;;26.24;47.37;100575.59;1739375;81;21523;-46
2021/08/24 11:55:56;;;;;;;3.47;2.50;;;;;;;26.27;47.36;100565.68;1762990;80;21415;-47
2021/08/24 11:58:39;;;;;;;5.40;3.02;;;;;;;26.29;47.38;100559.98;1734103;80;21027;-46
2021/08/24 12:01:05;;;;;;;4.33;2.47;;;;;;;26.31;47.40;100564.59;1728946;80;20999;-51
2021/08/24 12:03:37;;;;;;;3.12;2.60;;;;;;;26.33;47.39;100558.09;1740931;81;21149;-46
2021/08/24 12:06:36;;;;;;;3.77;2.58;;;;;;;26.36;47.42;100547.59;1748316;79;21079;-46